sensor_id;sensor_type;location;lat;lon;timestamp;temperature;humidity
17948;DHT22;9099;47.958;11.366;2022-08-01T00:01:47;21.60;99.90
17948;DHT22;9099;47.958;11.366;2022-08-01T00:04:14;21.60;99.90
17948;DHT22;9099;47.958;11.366;2022-08-01T00:06:42;21.60;99.90
17948;DHT22;9099;47.958;11.366;2022-08-01T00:09:09;21.60;99.90
17948;DHT22;9099;47.958;11.366;2022-08-01T00:11:35;21.50;99.90
17948;DHT22;9099;47.958;11.366;2022-08-01T00:14:03;21.50;99.90
17948;DHT22;9099;47.958;11.366;2022-08-01T00:16:30;21.50;99.90
17948;DHT22;9099;47.958;11.366;2022-08-01T00:18:56;21.40;99.90
17948;DHT22;9099;47.958;11.366;2022-08-01T00:21:23;21.40;99.90
17948;DHT22;9099;47.958;11.366;2022-08-01T00:23:52;21.40;99.90
17948;DHT22;9099;47.958;11.366;2022-08-01T00:26:19;21.40;99.90
17948;DHT22;9099;47.958;11.366;2022-08-01T00:28:46;21.40;99.90
17948;DHT22;9099;47.958;11.366;2022-08-01T00:31:13;21.40;99.90
17948;DHT22;9099;47.958;11.366;2022-08-01T00:33:40;21.30;99.90
17948;DHT22;9099;47.958;11.366;2022-08-01T00:36:07;21.30;99.90
17948;DHT22;9099;47.958;11.366;2022-08-01T00:38:33;21.30;99.90
17948;DHT22;9099;47.958;11.366;2022-08-01T00:41:02;21.20;99.90
17948;DHT22;9099;47.958;11.366;2022-08-01T00:43:29;21.20;99.90
17948;DHT22;9099;47.958;11.366;2022-08-01T00:45:55;21.20;99.90
17948;DHT22;9099;47.958;11.366;2022-08-01T00:48:22;21.10;99.90
17948;DHT22;9099;47.958;11.366;2022-08-01T00:50:49;21.10;99.90
17948;DHT22;9099;47.958;11.366;2022-08-01T00:53:16;21.00;99.90
17948;DHT22;9099;47.958;11.366;2022-08-01T00:55:43;21.00;99.90
17948;DHT22;9099;47.958;11.366;2022-08-01T00:58:12;21.00;99.90
17948;DHT22;9099;47.958;11.366;2022-08-01T01:00:39;20.90;99.90
17948;DHT22;9099;47.958;11.366;2022-08-01T01:03:05;20.90;99.90
17948;DHT22;9099;47.958;11.366;2022-08-01T01:05:38;20.90;99.90
17948;DHT22;9099;47.958;11.366;2022-08-01T01:08:16;20.80;99.90
17948;DHT22;9099;47.958;11.366;2022-08-01T01:10:48;20.80;99.90
17948;DHT22;9099;47.958;11.366;2022-08-01T01:13:25;20.80;99.90
17948;DHT22;9099;47.958;11.366;2022-08-01T01:15:57;20.80;99.90
17948;DHT22;9099;47.958;11.366;2022-08-01T01:18:29;20.80;99.90
17948;DHT22;9099;47.958;11.366;2022-08-01T01:21:00;20.80;99.90
17948;DHT22;9099;47.958;11.366;2022-08-01T01:23:44;20.80;99.90
17948;DHT22;9099;47.958;11.366;2022-08-01T01:26:29;20.80;99.90
17948;DHT22;9099;47.958;11.366;2022-08-01T01:29:06;20.80;99.90
17948;DHT22;9099;47.958;11.366;2022-08-01T01:31:40;20.80;99.90
17948;DHT22;9099;47.958;11.366;2022-08-01T01:34:10;20.80;99.90
17948;DHT22;9099;47.958;11.366;2022-08-01T01:36:38;20.90;99.90
17948;DHT22;9099;47.958;11.366;2022-08-01T01:39:06;20.90;99.90
17948;DHT22;9099;47.958;11.366;2022-08-01T01:41:35;21.00;99.90
17948;DHT22;9099;47.958;11.366;2022-08-01T01:44:04;21.00;99.90
17948;DHT22;9099;47.958;11.366;2022-08-01T01:46:32;21.00;99.90
17948;DHT22;9099;47.958;11.366;2022-08-01T01:48:59;21.00;99.90
17948;DHT22;9099;47.958;11.366;2022-08-01T01:51:28;21.00;99.90
17948;DHT22;9099;47.958;11.366;2022-08-01T01:53:57;21.00;99.90
17948;DHT22;9099;47.958;11.366;2022-08-01T01:56:25;21.00;99.90
17948;DHT22;9099;47.958;11.366;2022-08-01T01:58:55;21.10;99.90
17948;DHT22;9099;47.958;11.366;2022-08-01T02:01:27;21.10;99.90
17948;DHT22;9099;47.958;11.366;2022-08-01T02:03:55;21.10;99.90
17948;DHT22;9099;47.958;11.366;2022-08-01T02:06:24;21.10;99.90
17948;DHT22;9099;47.958;11.366;2022-08-01T02:08:53;21.10;99.90
17948;DHT22;9099;47.958;11.366;2022-08-01T02:11:21;21.10;99.90
17948;DHT22;9099;47.958;11.366;2022-08-01T02:13:53;21.00;99.90
17948;DHT22;9099;47.958;11.366;2022-08-01T02:16:24;21.00;99.90
17948;DHT22;9099;47.958;11.366;2022-08-01T02:18:52;21.00;99.90
17948;DHT22;9099;47.958;11.366;2022-08-01T02:21:25;21.00;99.90
17948;DHT22;9099;47.958;11.366;2022-08-01T02:23:54;21.00;99.90
17948;DHT22;9099;47.958;11.366;2022-08-01T02:26:23;21.00;99.90
17948;DHT22;9099;47.958;11.366;2022-08-01T02:28:54;21.10;99.90
17948;DHT22;9099;47.958;11.366;2022-08-01T02:31:24;21.10;99.90
17948;DHT22;9099;47.958;11.366;2022-08-01T02:34:05;21.10;99.90
17948;DHT22;9099;47.958;11.366;2022-08-01T02:36:33;21.10;99.90
17948;DHT22;9099;47.958;11.366;2022-08-01T02:39:03;21.10;99.90
17948;DHT22;9099;47.958;11.366;2022-08-01T02:41:31;21.00;99.90
17948;DHT22;9099;47.958;11.366;2022-08-01T02:44:03;21.00;99.90
17948;DHT22;9099;47.958;11.366;2022-08-01T02:46:35;21.00;99.90
17948;DHT22;9099;47.958;11.366;2022-08-01T02:49:05;20.90;99.90
17948;DHT22;9099;47.958;11.366;2022-08-01T02:51:34;20.80;99.90
17948;DHT22;9099;47.958;11.366;2022-08-01T02:54:03;20.80;99.90
17948;DHT22;9099;47.958;11.366;2022-08-01T02:56:32;20.80;99.90
17948;DHT22;9099;47.958;11.366;2022-08-01T02:59:06;20.80;99.90
17948;DHT22;9099;47.958;11.366;2022-08-01T03:01:36;20.80;99.90
17948;DHT22;9099;47.958;11.366;2022-08-01T03:04:05;20.80;99.90
17948;DHT22;9099;47.958;11.366;2022-08-01T03:06:33;20.80;99.90
17948;DHT22;9099;47.958;11.366;2022-08-01T03:09:01;20.70;99.90
17948;DHT22;9099;47.958;11.366;2022-08-01T03:11:29;20.70;99.90
17948;DHT22;9099;47.958;11.366;2022-08-01T03:13:59;20.70;99.90
17948;DHT22;9099;47.958;11.366;2022-08-01T03:16:26;20.70;99.90
17948;DHT22;9099;47.958;11.366;2022-08-01T03:18:56;20.70;99.90
17948;DHT22;9099;47.958;11.366;2022-08-01T03:21:24;20.70;99.90
17948;DHT22;9099;47.958;11.366;2022-08-01T03:23:53;20.70;99.90
17948;DHT22;9099;47.958;11.366;2022-08-01T03:26:25;20.70;99.90
17948;DHT22;9099;47.958;11.366;2022-08-01T03:28:55;20.70;99.90
17948;DHT22;9099;47.958;11.366;2022-08-01T03:31:24;20.70;99.90
17948;DHT22;9099;47.958;11.366;2022-08-01T03:33:52;20.60;99.90
17948;DHT22;9099;47.958;11.366;2022-08-01T03:36:24;20.60;99.90
17948;DHT22;9099;47.958;11.366;2022-08-01T03:38:52;20.50;99.90
17948;DHT22;9099;47.958;11.366;2022-08-01T03:41:25;20.50;99.90
17948;DHT22;9099;47.958;11.366;2022-08-01T03:43:57;20.50;99.90
17948;DHT22;9099;47.958;11.366;2022-08-01T03:46:29;20.50;99.90
17948;DHT22;9099;47.958;11.366;2022-08-01T03:49:01;20.40;99.90
17948;DHT22;9099;47.958;11.366;2022-08-01T03:51:32;20.40;99.90
17948;DHT22;9099;47.958;11.366;2022-08-01T03:54:01;20.30;99.90
17948;DHT22;9099;47.958;11.366;2022-08-01T03:56:28;20.30;99.90
17948;DHT22;9099;47.958;11.366;2022-08-01T03:58:58;20.30;99.90
17948;DHT22;9099;47.958;11.366;2022-08-01T04:01:25;20.30;99.90
17948;DHT22;9099;47.958;11.366;2022-08-01T04:03:53;20.30;99.90
17948;DHT22;9099;47.958;11.366;2022-08-01T04:06:21;20.30;99.90
17948;DHT22;9099;47.958;11.366;2022-08-01T04:08:49;20.30;99.90
17948;DHT22;9099;47.958;11.366;2022-08-01T04:11:23;20.30;99.90
17948;DHT22;9099;47.958;11.366;2022-08-01T04:13:51;20.30;99.90
17948;DHT22;9099;47.958;11.366;2022-08-01T04:16:18;20.30;99.90
17948;DHT22;9099;47.958;11.366;2022-08-01T04:18:45;20.30;99.90
17948;DHT22;9099;47.958;11.366;2022-08-01T04:21:13;20.30;99.90
17948;DHT22;9099;47.958;11.366;2022-08-01T04:23:41;20.30;99.90
17948;DHT22;9099;47.958;11.366;2022-08-01T04:26:13;20.40;99.90
17948;DHT22;9099;47.958;11.366;2022-08-01T04:28:43;20.40;99.90
17948;DHT22;9099;47.958;11.366;2022-08-01T04:31:10;20.40;99.90
17948;DHT22;9099;47.958;11.366;2022-08-01T04:33:40;20.50;99.90
17948;DHT22;9099;47.958;11.366;2022-08-01T04:36:10;20.40;99.90
17948;DHT22;9099;47.958;11.366;2022-08-01T04:38:38;20.40;99.90
17948;DHT22;9099;47.958;11.366;2022-08-01T04:41:06;20.40;99.90
17948;DHT22;9099;47.958;11.366;2022-08-01T04:43:36;20.50;99.90
17948;DHT22;9099;47.958;11.366;2022-08-01T04:46:03;20.60;99.90
17948;DHT22;9099;47.958;11.366;2022-08-01T04:48:32;20.60;99.90
17948;DHT22;9099;47.958;11.366;2022-08-01T04:50:59;20.60;99.90
17948;DHT22;9099;47.958;11.366;2022-08-01T04:53:26;20.80;99.90
17948;DHT22;9099;47.958;11.366;2022-08-01T04:55:53;20.80;99.90
17948;DHT22;9099;47.958;11.366;2022-08-01T04:58:21;20.80;99.90
17948;DHT22;9099;47.958;11.366;2022-08-01T05:00:49;20.90;99.90
17948;DHT22;9099;47.958;11.366;2022-08-01T05:03:16;21.10;99.90
17948;DHT22;9099;47.958;11.366;2022-08-01T05:05:43;21.20;99.90
17948;DHT22;9099;47.958;11.366;2022-08-01T05:08:10;21.30;99.90
17948;DHT22;9099;47.958;11.366;2022-08-01T05:10:37;21.40;99.90
17948;DHT22;9099;47.958;11.366;2022-08-01T05:13:04;21.50;99.90
17948;DHT22;9099;47.958;11.366;2022-08-01T05:15:31;21.50;99.90
17948;DHT22;9099;47.958;11.366;2022-08-01T05:18:00;21.70;99.90
17948;DHT22;9099;47.958;11.366;2022-08-01T05:20:26;21.80;99.90
17948;DHT22;9099;47.958;11.366;2022-08-01T05:22:53;21.80;99.90
17948;DHT22;9099;47.958;11.366;2022-08-01T05:25:20;21.90;99.90
17948;DHT22;9099;47.958;11.366;2022-08-01T05:27:49;21.90;99.90
17948;DHT22;9099;47.958;11.366;2022-08-01T05:30:16;21.90;99.90
17948;DHT22;9099;47.958;11.366;2022-08-01T05:32:43;22.00;99.90
17948;DHT22;9099;47.958;11.366;2022-08-01T05:35:11;22.00;99.90
17948;DHT22;9099;47.958;11.366;2022-08-01T05:37:38;21.90;99.90
17948;DHT22;9099;47.958;11.366;2022-08-01T05:40:06;21.90;99.90
17948;DHT22;9099;47.958;11.366;2022-08-01T05:42:33;21.90;99.90
17948;DHT22;9099;47.958;11.366;2022-08-01T05:44:59;21.90;99.90
17948;DHT22;9099;47.958;11.366;2022-08-01T05:47:26;22.00;99.90
17948;DHT22;9099;47.958;11.366;2022-08-01T05:49:53;22.10;99.90
17948;DHT22;9099;47.958;11.366;2022-08-01T05:52:21;22.20;99.90
17948;DHT22;9099;47.958;11.366;2022-08-01T05:54:48;22.50;99.90
17948;DHT22;9099;47.958;11.366;2022-08-01T05:57:15;22.70;99.90
17948;DHT22;9099;47.958;11.366;2022-08-01T05:59:42;23.00;99.90
17948;DHT22;9099;47.958;11.366;2022-08-01T06:02:09;23.60;99.90
17948;DHT22;9099;47.958;11.366;2022-08-01T06:04:36;24.20;99.90
17948;DHT22;9099;47.958;11.366;2022-08-01T06:07:02;24.90;99.90
17948;DHT22;9099;47.958;11.366;2022-08-01T06:09:31;25.40;99.90
17948;DHT22;9099;47.958;11.366;2022-08-01T06:11:57;26.00;99.90
17948;DHT22;9099;47.958;11.366;2022-08-01T06:14:24;26.30;99.90
17948;DHT22;9099;47.958;11.366;2022-08-01T06:16:51;26.50;99.90
17948;DHT22;9099;47.958;11.366;2022-08-01T06:19:18;26.80;99.90
17948;DHT22;9099;47.958;11.366;2022-08-01T06:21:45;26.90;99.90
17948;DHT22;9099;47.958;11.366;2022-08-01T06:24:12;26.90;99.90
17948;DHT22;9099;47.958;11.366;2022-08-01T06:26:40;26.80;99.90
17948;DHT22;9099;47.958;11.366;2022-08-01T06:29:07;26.50;99.90
17948;DHT22;9099;47.958;11.366;2022-08-01T06:31:34;26.40;99.90
17948;DHT22;9099;47.958;11.366;2022-08-01T06:34:01;26.20;99.90
17948;DHT22;9099;47.958;11.366;2022-08-01T06:36:28;25.80;99.90
17948;DHT22;9099;47.958;11.366;2022-08-01T06:38:55;25.50;99.90
17948;DHT22;9099;47.958;11.366;2022-08-01T06:41:22;25.40;99.90
17948;DHT22;9099;47.958;11.366;2022-08-01T06:43:50;25.30;99.90
17948;DHT22;9099;47.958;11.366;2022-08-01T06:46:17;25.20;99.90
17948;DHT22;9099;47.958;11.366;2022-08-01T06:48:44;25.00;99.90
17948;DHT22;9099;47.958;11.366;2022-08-01T06:51:11;24.90;99.90
17948;DHT22;9099;47.958;11.366;2022-08-01T06:53:40;24.90;99.90
17948;DHT22;9099;47.958;11.366;2022-08-01T06:56:07;25.00;99.90
17948;DHT22;9099;47.958;11.366;2022-08-01T06:58:35;25.00;99.90
17948;DHT22;9099;47.958;11.366;2022-08-01T07:01:04;25.00;99.90
17948;DHT22;9099;47.958;11.366;2022-08-01T07:03:32;25.10;99.90
17948;DHT22;9099;47.958;11.366;2022-08-01T07:05:59;25.10;99.90
17948;DHT22;9099;47.958;11.366;2022-08-01T07:08:26;25.10;99.90
17948;DHT22;9099;47.958;11.366;2022-08-01T07:10:53;25.10;99.90
17948;DHT22;9099;47.958;11.366;2022-08-01T07:13:21;25.20;99.90
17948;DHT22;9099;47.958;11.366;2022-08-01T07:15:50;25.30;99.90
17948;DHT22;9099;47.958;11.366;2022-08-01T07:18:19;25.40;99.90
17948;DHT22;9099;47.958;11.366;2022-08-01T07:20:46;25.50;99.90
17948;DHT22;9099;47.958;11.366;2022-08-01T07:23:13;25.60;99.90
17948;DHT22;9099;47.958;11.366;2022-08-01T07:25:40;25.60;99.90
17948;DHT22;9099;47.958;11.366;2022-08-01T07:28:07;25.60;99.90
17948;DHT22;9099;47.958;11.366;2022-08-01T07:30:34;25.70;99.90
17948;DHT22;9099;47.958;11.366;2022-08-01T07:33:03;25.70;99.90
17948;DHT22;9099;47.958;11.366;2022-08-01T07:35:31;25.70;99.90
17948;DHT22;9099;47.958;11.366;2022-08-01T07:37:58;25.80;99.90
17948;DHT22;9099;47.958;11.366;2022-08-01T07:40:25;25.90;99.90
17948;DHT22;9099;47.958;11.366;2022-08-01T07:42:52;26.10;99.90
17948;DHT22;9099;47.958;11.366;2022-08-01T07:45:19;26.10;99.90
17948;DHT22;9099;47.958;11.366;2022-08-01T07:47:46;26.10;99.90
17948;DHT22;9099;47.958;11.366;2022-08-01T07:50:15;26.20;99.90
17948;DHT22;9099;47.958;11.366;2022-08-01T07:52:44;26.30;99.90
17948;DHT22;9099;47.958;11.366;2022-08-01T07:55:11;26.40;99.90
17948;DHT22;9099;47.958;11.366;2022-08-01T07:57:38;26.50;99.90
17948;DHT22;9099;47.958;11.366;2022-08-01T08:00:06;26.50;99.90
17948;DHT22;9099;47.958;11.366;2022-08-01T08:02:34;26.40;99.90
17948;DHT22;9099;47.958;11.366;2022-08-01T08:05:02;26.60;99.90
17948;DHT22;9099;47.958;11.366;2022-08-01T08:07:29;26.70;99.90
17948;DHT22;9099;47.958;11.366;2022-08-01T08:09:57;26.80;99.90
17948;DHT22;9099;47.958;11.366;2022-08-01T08:12:24;26.90;99.90
17948;DHT22;9099;47.958;11.366;2022-08-01T08:14:51;26.90;99.90
17948;DHT22;9099;47.958;11.366;2022-08-01T08:17:18;27.10;99.90
17948;DHT22;9099;47.958;11.366;2022-08-01T08:19:45;27.30;99.90
17948;DHT22;9099;47.958;11.366;2022-08-01T08:22:12;27.20;99.90
17948;DHT22;9099;47.958;11.366;2022-08-01T08:24:39;27.40;99.90
17948;DHT22;9099;47.958;11.366;2022-08-01T08:27:07;27.50;99.90
17948;DHT22;9099;47.958;11.366;2022-08-01T08:29:34;27.60;99.90
17948;DHT22;9099;47.958;11.366;2022-08-01T08:32:02;27.80;99.90
17948;DHT22;9099;47.958;11.366;2022-08-01T08:34:29;28.00;99.90
17948;DHT22;9099;47.958;11.366;2022-08-01T08:36:56;28.00;99.90
17948;DHT22;9099;47.958;11.366;2022-08-01T08:39:24;28.00;99.90
17948;DHT22;9099;47.958;11.366;2022-08-01T08:41:51;28.00;99.90
17948;DHT22;9099;47.958;11.366;2022-08-01T08:44:19;28.30;99.90
17948;DHT22;9099;47.958;11.366;2022-08-01T08:46:47;28.50;99.90
17948;DHT22;9099;47.958;11.366;2022-08-01T08:49:18;28.70;99.90
17948;DHT22;9099;47.958;11.366;2022-08-01T08:51:48;29.00;99.90
17948;DHT22;9099;47.958;11.366;2022-08-01T08:54:17;29.10;99.90
17948;DHT22;9099;47.958;11.366;2022-08-01T08:56:46;29.40;99.90
17948;DHT22;9099;47.958;11.366;2022-08-01T08:59:14;29.60;99.90
17948;DHT22;9099;47.958;11.366;2022-08-01T09:01:42;29.60;99.90
17948;DHT22;9099;47.958;11.366;2022-08-01T09:04:10;29.70;99.90
17948;DHT22;9099;47.958;11.366;2022-08-01T09:06:38;29.80;99.90
17948;DHT22;9099;47.958;11.366;2022-08-01T09:09:06;30.10;99.90
17948;DHT22;9099;47.958;11.366;2022-08-01T09:11:33;30.40;99.90
17948;DHT22;9099;47.958;11.366;2022-08-01T09:14:06;30.80;99.90
17948;DHT22;9099;47.958;11.366;2022-08-01T09:16:34;31.20;99.90
17948;DHT22;9099;47.958;11.366;2022-08-01T09:19:11;31.30;99.90
17948;DHT22;9099;47.958;11.366;2022-08-01T09:21:39;31.50;99.90
17948;DHT22;9099;47.958;11.366;2022-08-01T09:24:15;31.60;99.90
17948;DHT22;9099;47.958;11.366;2022-08-01T09:26:43;31.90;99.90
17948;DHT22;9099;47.958;11.366;2022-08-01T09:29:18;32.10;99.90
17948;DHT22;9099;47.958;11.366;2022-08-01T09:31:46;32.30;99.90
17948;DHT22;9099;47.958;11.366;2022-08-01T09:34:16;32.40;99.90
17948;DHT22;9099;47.958;11.366;2022-08-01T09:36:51;32.90;99.70
17948;DHT22;9099;47.958;11.366;2022-08-01T09:39:21;33.40;99.90
17948;DHT22;9099;47.958;11.366;2022-08-01T09:41:48;33.70;99.90
17948;DHT22;9099;47.958;11.366;2022-08-01T09:44:17;34.00;99.60
17948;DHT22;9099;47.958;11.366;2022-08-01T09:46:52;34.40;99.20
17948;DHT22;9099;47.958;11.366;2022-08-01T09:49:29;34.60;97.50
17948;DHT22;9099;47.958;11.366;2022-08-01T09:51:58;34.50;98.30
17948;DHT22;9099;47.958;11.366;2022-08-01T09:54:31;34.60;99.20
17948;DHT22;9099;47.958;11.366;2022-08-01T09:57:08;34.90;97.10
17948;DHT22;9099;47.958;11.366;2022-08-01T09:59:36;35.20;97.40
17948;DHT22;9099;47.958;11.366;2022-08-01T10:02:06;35.40;96.50
17948;DHT22;9099;47.958;11.366;2022-08-01T10:04:35;35.30;97.30
17948;DHT22;9099;47.958;11.366;2022-08-01T10:07:06;35.50;96.50
17948;DHT22;9099;47.958;11.366;2022-08-01T10:09:35;35.30;94.10
17948;DHT22;9099;47.958;11.366;2022-08-01T10:12:03;35.10;94.50
17948;DHT22;9099;47.958;11.366;2022-08-01T10:14:31;34.80;94.60
17948;DHT22;9099;47.958;11.366;2022-08-01T10:16:59;34.80;96.00
17948;DHT22;9099;47.958;11.366;2022-08-01T10:19:28;34.70;94.60
17948;DHT22;9099;47.958;11.366;2022-08-01T10:21:57;34.90;96.30
17948;DHT22;9099;47.958;11.366;2022-08-01T10:24:26;35.00;94.80
17948;DHT22;9099;47.958;11.366;2022-08-01T10:26:56;34.80;95.00
17948;DHT22;9099;47.958;11.366;2022-08-01T10:29:27;34.90;95.10
17948;DHT22;9099;47.958;11.366;2022-08-01T10:31:56;34.90;94.20
17948;DHT22;9099;47.958;11.366;2022-08-01T10:34:23;35.00;94.60
17948;DHT22;9099;47.958;11.366;2022-08-01T10:36:51;35.30;96.20
17948;DHT22;9099;47.958;11.366;2022-08-01T10:39:19;35.70;95.00
17948;DHT22;9099;47.958;11.366;2022-08-01T10:41:46;36.00;95.80
17948;DHT22;9099;47.958;11.366;2022-08-01T10:44:13;36.00;95.90
17948;DHT22;9099;47.958;11.366;2022-08-01T10:46:46;36.00;93.70
17948;DHT22;9099;47.958;11.366;2022-08-01T10:49:17;35.90;93.30
17948;DHT22;9099;47.958;11.366;2022-08-01T10:51:46;35.90;93.50
17948;DHT22;9099;47.958;11.366;2022-08-01T10:54:13;35.80;94.20
17948;DHT22;9099;47.958;11.366;2022-08-01T10:56:44;35.80;95.20
17948;DHT22;9099;47.958;11.366;2022-08-01T10:59:15;35.80;93.90
17948;DHT22;9099;47.958;11.366;2022-08-01T11:01:55;36.00;93.40
17948;DHT22;9099;47.958;11.366;2022-08-01T11:04:33;36.00;91.50
17948;DHT22;9099;47.958;11.366;2022-08-01T11:07:04;35.40;91.20
17948;DHT22;9099;47.958;11.366;2022-08-01T11:09:38;34.80;91.80
17948;DHT22;9099;47.958;11.366;2022-08-01T11:12:09;34.60;93.60
17948;DHT22;9099;47.958;11.366;2022-08-01T11:17:51;34.70;92.70
17948;DHT22;9099;47.958;11.366;2022-08-01T11:20:19;34.70;94.60
17948;DHT22;9099;47.958;11.366;2022-08-01T11:26:10;34.40;93.80
17948;DHT22;9099;47.958;11.366;2022-08-01T11:28:40;34.50;92.90
17948;DHT22;9099;47.958;11.366;2022-08-01T11:31:26;34.70;92.30
17948;DHT22;9099;47.958;11.366;2022-08-01T11:33:54;34.80;92.80
17948;DHT22;9099;47.958;11.366;2022-08-01T11:36:21;35.00;92.00
17948;DHT22;9099;47.958;11.366;2022-08-01T11:39:07;35.30;91.50
17948;DHT22;9099;47.958;11.366;2022-08-01T11:41:37;35.00;92.50
17948;DHT22;9099;47.958;11.366;2022-08-01T11:44:08;35.10;93.40
17948;DHT22;9099;47.958;11.366;2022-08-01T11:46:49;35.00;93.80
17948;DHT22;9099;47.958;11.366;2022-08-01T11:52:11;34.70;93.90
17948;DHT22;9099;47.958;11.366;2022-08-01T11:54:40;34.50;93.60
17948;DHT22;9099;47.958;11.366;2022-08-01T11:57:09;34.10;93.80
17948;DHT22;9099;47.958;11.366;2022-08-01T11:59:39;33.80;92.80
17948;DHT22;9099;47.958;11.366;2022-08-01T12:02:16;33.80;94.50
17948;DHT22;9099;47.958;11.366;2022-08-01T12:04:47;33.80;93.50
17948;DHT22;9099;47.958;11.366;2022-08-01T12:07:16;33.70;93.60
17948;DHT22;9099;47.958;11.366;2022-08-01T12:09:43;33.70;95.00
17948;DHT22;9099;47.958;11.366;2022-08-01T12:12:10;33.40;93.00
17948;DHT22;9099;47.958;11.366;2022-08-01T12:14:38;33.30;94.90
17948;DHT22;9099;47.958;11.366;2022-08-01T12:17:05;33.40;95.10
17948;DHT22;9099;47.958;11.366;2022-08-01T12:19:32;33.70;94.40
17948;DHT22;9099;47.958;11.366;2022-08-01T12:22:09;33.90;95.50
17948;DHT22;9099;47.958;11.366;2022-08-01T12:24:38;34.10;95.10
17948;DHT22;9099;47.958;11.366;2022-08-01T12:27:06;34.80;95.70
17948;DHT22;9099;47.958;11.366;2022-08-01T12:29:35;34.90;94.00
17948;DHT22;9099;47.958;11.366;2022-08-01T12:32:21;34.50;93.80
17948;DHT22;9099;47.958;11.366;2022-08-01T12:34:48;34.30;92.20
17948;DHT22;9099;47.958;11.366;2022-08-01T12:37:16;33.90;93.70
17948;DHT22;9099;47.958;11.366;2022-08-01T12:39:43;34.10;93.40
17948;DHT22;9099;47.958;11.366;2022-08-01T12:42:11;34.40;92.80
17948;DHT22;9099;47.958;11.366;2022-08-01T12:44:39;34.60;92.60
17948;DHT22;9099;47.958;11.366;2022-08-01T12:47:08;34.50;91.80
17948;DHT22;9099;47.958;11.366;2022-08-01T12:49:36;34.10;92.90
17948;DHT22;9099;47.958;11.366;2022-08-01T12:52:04;34.00;91.20
17948;DHT22;9099;47.958;11.366;2022-08-01T12:54:31;33.80;91.10
17948;DHT22;9099;47.958;11.366;2022-08-01T12:57:24;33.90;92.30
17948;DHT22;9099;47.958;11.366;2022-08-01T12:59:53;33.90;93.50
17948;DHT22;9099;47.958;11.366;2022-08-01T13:02:31;33.80;93.90
17948;DHT22;9099;47.958;11.366;2022-08-01T13:04:58;33.50;93.90
17948;DHT22;9099;47.958;11.366;2022-08-01T13:07:38;33.60;94.50
17948;DHT22;9099;47.958;11.366;2022-08-01T13:10:06;33.80;94.20
17948;DHT22;9099;47.958;11.366;2022-08-01T13:12:33;33.80;94.00
17948;DHT22;9099;47.958;11.366;2022-08-01T13:15:17;33.70;93.80
17948;DHT22;9099;47.958;11.366;2022-08-01T13:17:45;33.90;94.20
17948;DHT22;9099;47.958;11.366;2022-08-01T13:20:28;33.80;93.80
17948;DHT22;9099;47.958;11.366;2022-08-01T13:22:55;33.60;91.80
17948;DHT22;9099;47.958;11.366;2022-08-01T13:25:46;33.30;93.80
17948;DHT22;9099;47.958;11.366;2022-08-01T13:28:22;33.10;91.80
17948;DHT22;9099;47.958;11.366;2022-08-01T13:30:58;33.10;94.00
17948;DHT22;9099;47.958;11.366;2022-08-01T13:33:39;33.30;93.30
17948;DHT22;9099;47.958;11.366;2022-08-01T13:36:07;33.50;93.00
17948;DHT22;9099;47.958;11.366;2022-08-01T13:38:34;33.60;93.90
17948;DHT22;9099;47.958;11.366;2022-08-01T13:41:18;33.70;93.20
17948;DHT22;9099;47.958;11.366;2022-08-01T13:43:44;33.50;94.10
17948;DHT22;9099;47.958;11.366;2022-08-01T13:46:11;33.60;92.40
17948;DHT22;9099;47.958;11.366;2022-08-01T13:48:40;33.70;92.90
17948;DHT22;9099;47.958;11.366;2022-08-01T13:51:07;33.70;93.60
17948;DHT22;9099;47.958;11.366;2022-08-01T13:53:34;33.80;91.90
17948;DHT22;9099;47.958;11.366;2022-08-01T13:56:01;34.00;94.40
17948;DHT22;9099;47.958;11.366;2022-08-01T13:58:28;33.50;94.10
17948;DHT22;9099;47.958;11.366;2022-08-01T14:00:55;33.60;92.70
17948;DHT22;9099;47.958;11.366;2022-08-01T14:03:22;33.60;93.90
17948;DHT22;9099;47.958;11.366;2022-08-01T14:05:50;33.50;93.10
17948;DHT22;9099;47.958;11.366;2022-08-01T14:08:17;33.50;93.50
17948;DHT22;9099;47.958;11.366;2022-08-01T14:10:44;33.60;93.10
17948;DHT22;9099;47.958;11.366;2022-08-01T14:13:11;33.20;93.20
17948;DHT22;9099;47.958;11.366;2022-08-01T14:15:38;32.70;94.60
17948;DHT22;9099;47.958;11.366;2022-08-01T14:18:05;32.80;96.00
17948;DHT22;9099;47.958;11.366;2022-08-01T14:20:32;32.90;95.70
17948;DHT22;9099;47.958;11.366;2022-08-01T14:23:00;32.90;96.10
17948;DHT22;9099;47.958;11.366;2022-08-01T14:25:27;33.00;95.90
17948;DHT22;9099;47.958;11.366;2022-08-01T14:27:54;33.10;95.50
17948;DHT22;9099;47.958;11.366;2022-08-01T14:30:21;33.00;95.50
17948;DHT22;9099;47.958;11.366;2022-08-01T14:32:48;32.90;96.50
17948;DHT22;9099;47.958;11.366;2022-08-01T14:35:14;32.80;96.10
17948;DHT22;9099;47.958;11.366;2022-08-01T14:37:41;32.50;95.70
17948;DHT22;9099;47.958;11.366;2022-08-01T14:40:10;32.40;96.80
17948;DHT22;9099;47.958;11.366;2022-08-01T14:42:37;32.50;97.60
17948;DHT22;9099;47.958;11.366;2022-08-01T14:45:05;32.60;95.90
17948;DHT22;9099;47.958;11.366;2022-08-01T14:47:34;32.90;96.50
17948;DHT22;9099;47.958;11.366;2022-08-01T14:50:02;32.90;95.30
17948;DHT22;9099;47.958;11.366;2022-08-01T14:52:29;32.80;94.30
17948;DHT22;9099;47.958;11.366;2022-08-01T14:54:56;32.50;93.90
17948;DHT22;9099;47.958;11.366;2022-08-01T14:57:24;32.30;95.20
17948;DHT22;9099;47.958;11.366;2022-08-01T14:59:51;32.20;95.40
17948;DHT22;9099;47.958;11.366;2022-08-01T15:02:18;31.80;94.40
17948;DHT22;9099;47.958;11.366;2022-08-01T15:04:45;31.50;94.50
17948;DHT22;9099;47.958;11.366;2022-08-01T15:07:13;31.40;96.30
17948;DHT22;9099;47.958;11.366;2022-08-01T15:09:40;31.30;95.10
17948;DHT22;9099;47.958;11.366;2022-08-01T15:12:08;31.10;95.30
17948;DHT22;9099;47.958;11.366;2022-08-01T15:14:36;30.90;95.50
17948;DHT22;9099;47.958;11.366;2022-08-01T15:17:16;30.80;97.40
17948;DHT22;9099;47.958;11.366;2022-08-01T15:19:44;30.50;96.70
17948;DHT22;9099;47.958;11.366;2022-08-01T15:22:11;30.30;97.00
17948;DHT22;9099;47.958;11.366;2022-08-01T15:24:38;30.00;97.10
17948;DHT22;9099;47.958;11.366;2022-08-01T15:27:06;29.60;97.20
17948;DHT22;9099;47.958;11.366;2022-08-01T15:29:32;29.30;97.10
17948;DHT22;9099;47.958;11.366;2022-08-01T15:32:01;28.80;97.80
17948;DHT22;9099;47.958;11.366;2022-08-01T15:34:29;28.60;97.90
17948;DHT22;9099;47.958;11.366;2022-08-01T15:36:56;28.30;98.10
17948;DHT22;9099;47.958;11.366;2022-08-01T15:39:23;28.10;98.80
17948;DHT22;9099;47.958;11.366;2022-08-01T15:41:50;28.10;99.20
17948;DHT22;9099;47.958;11.366;2022-08-01T15:44:17;28.00;99.70
17948;DHT22;9099;47.958;11.366;2022-08-01T15:46:47;27.80;99.70
17948;DHT22;9099;47.958;11.366;2022-08-01T15:49:16;27.50;99.90
17948;DHT22;9099;47.958;11.366;2022-08-01T15:51:43;27.40;99.90